Terminal Aerodrome Forecast
Issued by NWS

Home | Current Version | Previous Version | Text Only | Print | Product List | Glossary On
Versions: 1 2 3 4 5 6 7 8 9 10 11 12 13 14 15 16 17 18 19 20 21 22
000
FTUS46 KLOX 281736
TAFLGB
TAF
KLGB 281736Z 2818/2918 VRB03KT 6SM HZ OVC016
     FM282000 20007KT P6SM BKN020
     FM282300 29008KT P6SM SKC
     FM290600 VRB03KT P6SM BKN012
     FM291000 VRB03KT P6SM OVC009
     FM291500 VRB03KT 5SM HZ OVC012=

USA.gov is the U.S. government's official web portal to all federal, state and local government web resources and services.